sensor_id;sensor_type;location;lat;lon;timestamp;temperature;humidity
75113;DHT22;63692;47.338;8.520;2023-06-14T03:38:36;14.70;79.20
75113;DHT22;63692;47.338;8.520;2023-06-14T03:41:02;14.70;79.00
75113;DHT22;63692;47.338;8.520;2023-06-14T03:43:27;14.70;79.30
75113;DHT22;63692;47.338;8.520;2023-06-14T03:45:53;14.70;78.80
75113;DHT22;63692;47.338;8.520;2023-06-14T03:50:46;14.70;79.40
75113;DHT22;63692;47.338;8.520;2023-06-14T03:53:12;14.70;79.50
75113;DHT22;63692;47.338;8.520;2023-06-14T03:55:38;14.70;79.60
75113;DHT22;63692;47.338;8.520;2023-06-14T03:58:04;14.60;79.60
75113;DHT22;63692;47.338;8.520;2023-06-14T04:00:30;14.60;79.70
75113;DHT22;63692;47.338;8.520;2023-06-14T04:02:57;14.70;80.10
75113;DHT22;63692;47.338;8.520;2023-06-14T04:05:22;14.70;80.90
75113;DHT22;63692;47.338;8.520;2023-06-14T04:07:51;14.60;81.00
75113;DHT22;63692;47.338;8.520;2023-06-14T04:10:17;14.60;81.00
75113;DHT22;63692;47.338;8.520;2023-06-14T04:12:43;14.60;80.90
75113;DHT22;63692;47.338;8.520;2023-06-14T04:15:09;14.60;81.60
75113;DHT22;63692;47.338;8.520;2023-06-14T04:17:35;14.60;81.40
75113;DHT22;63692;47.338;8.520;2023-06-14T04:20:01;14.60;81.70
75113;DHT22;63692;47.338;8.520;2023-06-14T04:22:27;14.60;82.20
75113;DHT22;63692;47.338;8.520;2023-06-14T04:24:56;14.60;82.10
75113;DHT22;63692;47.338;8.520;2023-06-14T04:27:26;14.50;82.20
75113;DHT22;63692;47.338;8.520;2023-06-14T04:29:52;14.50;81.60
75113;DHT22;63692;47.338;8.520;2023-06-14T04:42:27;14.60;80.90
75113;DHT22;63692;47.338;8.520;2023-06-14T04:47:24;14.70;82.50
75113;DHT22;63692;47.338;8.520;2023-06-14T04:49:55;14.70;82.40
75113;DHT22;63692;47.338;8.520;2023-06-14T04:54:48;14.70;82.70
75113;DHT22;63692;47.338;8.520;2023-06-14T04:57:14;14.70;83.80
75113;DHT22;63692;47.338;8.520;2023-06-14T05:04:43;14.80;83.90
75113;DHT22;63692;47.338;8.520;2023-06-14T05:07:08;14.80;84.50
75113;DHT22;63692;47.338;8.520;2023-06-14T05:09:35;14.90;84.70
75113;DHT22;63692;47.338;8.520;2023-06-14T05:12:02;14.90;84.90
75113;DHT22;63692;47.338;8.520;2023-06-14T05:14:27;15.00;80.00
75113;DHT22;63692;47.338;8.520;2023-06-14T05:16:53;15.00;81.00
75113;DHT22;63692;47.338;8.520;2023-06-14T05:19:19;15.10;83.10
75113;DHT22;63692;47.338;8.520;2023-06-14T05:21:46;15.10;84.10
75113;DHT22;63692;47.338;8.520;2023-06-14T05:26:40;15.30;79.80
75113;DHT22;63692;47.338;8.520;2023-06-14T05:29:06;15.30;79.50
75113;DHT22;63692;47.338;8.520;2023-06-14T05:31:31;15.40;75.10
75113;DHT22;63692;47.338;8.520;2023-06-14T05:33:57;15.50;75.70
75113;DHT22;63692;47.338;8.520;2023-06-14T05:36:22;15.60;80.50
75113;DHT22;63692;47.338;8.520;2023-06-14T05:38:48;15.70;78.60
75113;DHT22;63692;47.338;8.520;2023-06-14T05:41:14;15.70;73.10
75113;DHT22;63692;47.338;8.520;2023-06-14T05:43:39;15.80;70.50
75113;DHT22;63692;47.338;8.520;2023-06-14T05:46:07;15.90;68.30
75113;DHT22;63692;47.338;8.520;2023-06-14T05:51:00;16.00;68.00
75113;DHT22;63692;47.338;8.520;2023-06-14T05:53:26;16.10;66.30
75113;DHT22;63692;47.338;8.520;2023-06-14T05:58:19;16.30;66.40
75113;DHT22;63692;47.338;8.520;2023-06-14T06:00:45;16.40;65.30
75113;DHT22;63692;47.338;8.520;2023-06-14T06:03:11;16.40;65.40
75113;DHT22;63692;47.338;8.520;2023-06-14T06:05:38;16.50;65.80
75113;DHT22;63692;47.338;8.520;2023-06-14T06:08:04;16.50;64.80
75113;DHT22;63692;47.338;8.520;2023-06-14T06:10:29;16.60;64.80
75113;DHT22;63692;47.338;8.520;2023-06-14T06:12:55;16.70;64.00
75113;DHT22;63692;47.338;8.520;2023-06-14T06:15:21;16.70;64.00
75113;DHT22;63692;47.338;8.520;2023-06-14T06:17:46;16.80;64.20
75113;DHT22;63692;47.338;8.520;2023-06-14T06:20:12;16.80;63.60
75113;DHT22;63692;47.338;8.520;2023-06-14T06:22:38;16.90;63.70
75113;DHT22;63692;47.338;8.520;2023-06-14T06:25:04;16.90;63.40
75113;DHT22;63692;47.338;8.520;2023-06-14T06:27:31;17.00;63.80
75113;DHT22;63692;47.338;8.520;2023-06-14T06:29:57;17.10;63.50
75113;DHT22;63692;47.338;8.520;2023-06-14T06:32:22;17.10;64.40
75113;DHT22;63692;47.338;8.520;2023-06-14T06:34:48;17.20;63.40
75113;DHT22;63692;47.338;8.520;2023-06-14T06:37:14;17.20;62.80
75113;DHT22;63692;47.338;8.520;2023-06-14T06:39:39;17.20;62.30
75113;DHT22;63692;47.338;8.520;2023-06-14T06:42:05;17.30;62.80
75113;DHT22;63692;47.338;8.520;2023-06-14T06:44:32;17.30;62.20
75113;DHT22;63692;47.338;8.520;2023-06-14T06:46:58;17.30;62.60
75113;DHT22;63692;47.338;8.520;2023-06-14T06:49:23;17.40;62.60
75113;DHT22;63692;47.338;8.520;2023-06-14T06:52:00;17.40;62.70
75113;DHT22;63692;47.338;8.520;2023-06-14T06:54:29;17.50;62.80
75113;DHT22;63692;47.338;8.520;2023-06-14T06:56:54;17.50;61.90
75113;DHT22;63692;47.338;8.520;2023-06-14T06:59:20;17.60;61.80
75113;DHT22;63692;47.338;8.520;2023-06-14T07:01:46;17.60;61.70
75113;DHT22;63692;47.338;8.520;2023-06-14T07:04:12;17.70;61.00
75113;DHT22;63692;47.338;8.520;2023-06-14T07:06:38;17.70;61.10
75113;DHT22;63692;47.338;8.520;2023-06-14T07:09:04;17.80;61.20
75113;DHT22;63692;47.338;8.520;2023-06-14T07:11:33;17.80;61.80
75113;DHT22;63692;47.338;8.520;2023-06-14T07:13:59;17.80;62.40
75113;DHT22;63692;47.338;8.520;2023-06-14T07:16:25;17.80;62.50
75113;DHT22;63692;47.338;8.520;2023-06-14T07:18:51;17.90;62.20
75113;DHT22;63692;47.338;8.520;2023-06-14T07:21:16;18.00;63.30
75113;DHT22;63692;47.338;8.520;2023-06-14T07:23:42;18.00;63.60
75113;DHT22;63692;47.338;8.520;2023-06-14T07:26:08;18.00;61.50
75113;DHT22;63692;47.338;8.520;2023-06-14T07:28:33;18.10;62.40
75113;DHT22;63692;47.338;8.520;2023-06-14T07:30:59;18.10;62.70
75113;DHT22;63692;47.338;8.520;2023-06-14T07:33:24;18.20;62.00
75113;DHT22;63692;47.338;8.520;2023-06-14T07:35:50;18.20;62.10
75113;DHT22;63692;47.338;8.520;2023-06-14T07:38:17;18.30;62.30
75113;DHT22;63692;47.338;8.520;2023-06-14T07:40:43;18.30;62.60
75113;DHT22;63692;47.338;8.520;2023-06-14T07:43:08;18.30;62.40
75113;DHT22;63692;47.338;8.520;2023-06-14T07:45:34;18.40;63.00
75113;DHT22;63692;47.338;8.520;2023-06-14T07:47:59;18.40;61.00
75113;DHT22;63692;47.338;8.520;2023-06-14T07:50:25;18.50;61.00
75113;DHT22;63692;47.338;8.520;2023-06-14T07:52:51;18.40;61.60
75113;DHT22;63692;47.338;8.520;2023-06-14T07:55:16;18.50;62.20
75113;DHT22;63692;47.338;8.520;2023-06-14T07:57:42;18.60;60.80
75113;DHT22;63692;47.338;8.520;2023-06-14T08:00:09;18.60;60.30
75113;DHT22;63692;47.338;8.520;2023-06-14T08:02:41;18.60;61.10
75113;DHT22;63692;47.338;8.520;2023-06-14T08:05:08;18.70;59.50
75113;DHT22;63692;47.338;8.520;2023-06-14T08:07:34;18.70;59.40
75113;DHT22;63692;47.338;8.520;2023-06-14T08:10:00;18.80;58.90
75113;DHT22;63692;47.338;8.520;2023-06-14T08:12:26;18.80;58.80
75113;DHT22;63692;47.338;8.520;2023-06-14T08:14:51;18.90;58.10
75113;DHT22;63692;47.338;8.520;2023-06-14T08:17:17;18.90;57.50
75113;DHT22;63692;47.338;8.520;2023-06-14T08:19:42;18.90;58.00
75113;DHT22;63692;47.338;8.520;2023-06-14T08:22:08;19.00;59.20
75113;DHT22;63692;47.338;8.520;2023-06-14T08:24:37;19.00;58.60
75113;DHT22;63692;47.338;8.520;2023-06-14T08:27:02;19.00;58.90
75113;DHT22;63692;47.338;8.520;2023-06-14T08:29:28;19.10;57.40
75113;DHT22;63692;47.338;8.520;2023-06-14T08:31:56;19.10;57.00
75113;DHT22;63692;47.338;8.520;2023-06-14T08:34:22;19.20;57.90
75113;DHT22;63692;47.338;8.520;2023-06-14T08:36:50;19.20;57.50
75113;DHT22;63692;47.338;8.520;2023-06-14T08:39:15;19.20;58.80
75113;DHT22;63692;47.338;8.520;2023-06-14T08:41:44;19.20;58.80
75113;DHT22;63692;47.338;8.520;2023-06-14T08:44:11;19.30;58.60
75113;DHT22;63692;47.338;8.520;2023-06-14T08:46:37;19.30;56.80
75113;DHT22;63692;47.338;8.520;2023-06-14T08:49:04;19.40;56.70
75113;DHT22;63692;47.338;8.520;2023-06-14T08:51:32;19.40;57.60
75113;DHT22;63692;47.338;8.520;2023-06-14T08:54:00;19.40;58.20
75113;DHT22;63692;47.338;8.520;2023-06-14T08:56:27;19.50;57.80
75113;DHT22;63692;47.338;8.520;2023-06-14T08:58:54;19.60;57.00
75113;DHT22;63692;47.338;8.520;2023-06-14T09:01:20;19.60;57.30
75113;DHT22;63692;47.338;8.520;2023-06-14T09:03:48;19.70;56.70
75113;DHT22;63692;47.338;8.520;2023-06-14T09:06:14;19.70;56.60
75113;DHT22;63692;47.338;8.520;2023-06-14T09:08:42;19.70;56.80
75113;DHT22;63692;47.338;8.520;2023-06-14T09:11:10;19.70;57.30
75113;DHT22;63692;47.338;8.520;2023-06-14T09:13:36;19.80;56.80
75113;DHT22;63692;47.338;8.520;2023-06-14T09:16:03;19.80;56.80
75113;DHT22;63692;47.338;8.520;2023-06-14T09:18:40;19.90;56.90
75113;DHT22;63692;47.338;8.520;2023-06-14T09:21:10;19.90;56.40
75113;DHT22;63692;47.338;8.520;2023-06-14T09:23:40;20.00;54.10
75113;DHT22;63692;47.338;8.520;2023-06-14T09:26:13;20.10;55.10
75113;DHT22;63692;47.338;8.520;2023-06-14T09:28:49;20.20;54.20
75113;DHT22;63692;47.338;8.520;2023-06-14T09:31:20;20.20;54.40
75113;DHT22;63692;47.338;8.520;2023-06-14T09:33:47;20.20;55.50
75113;DHT22;63692;47.338;8.520;2023-06-14T09:36:22;20.30;54.30
75113;DHT22;63692;47.338;8.520;2023-06-14T09:38:57;20.30;55.40
75113;DHT22;63692;47.338;8.520;2023-06-14T09:41:35;20.30;54.20
75113;DHT22;63692;47.338;8.520;2023-06-14T09:44:04;20.40;54.60
75113;DHT22;63692;47.338;8.520;2023-06-14T09:46:30;20.50;55.10
75113;DHT22;63692;47.338;8.520;2023-06-14T09:51:24;20.50;54.00
75113;DHT22;63692;47.338;8.520;2023-06-14T09:53:50;20.60;53.50
75113;DHT22;63692;47.338;8.520;2023-06-14T09:56:27;20.60;52.90
75113;DHT22;63692;47.338;8.520;2023-06-14T09:58:56;20.70;53.30
75113;DHT22;63692;47.338;8.520;2023-06-14T10:01:24;20.80;53.90
75113;DHT22;63692;47.338;8.520;2023-06-14T10:03:54;20.80;53.50
75113;DHT22;63692;47.338;8.520;2023-06-14T10:06:21;21.00;52.50
75113;DHT22;63692;47.338;8.520;2023-06-14T10:08:50;21.10;52.30
75113;DHT22;63692;47.338;8.520;2023-06-14T10:11:17;21.10;51.50
75113;DHT22;63692;47.338;8.520;2023-06-14T10:13:43;21.30;51.20
75113;DHT22;63692;47.338;8.520;2023-06-14T10:19:17;21.40;50.60
75113;DHT22;63692;47.338;8.520;2023-06-14T10:24:15;21.30;50.20
75113;DHT22;63692;47.338;8.520;2023-06-14T10:29:09;21.30;49.70
75113;DHT22;63692;47.338;8.520;2023-06-14T10:34:08;21.60;50.60
75113;DHT22;63692;47.338;8.520;2023-06-14T10:36:34;21.70;48.60
75113;DHT22;63692;47.338;8.520;2023-06-14T10:39:19;21.70;49.90
75113;DHT22;63692;47.338;8.520;2023-06-14T10:41:55;21.70;48.70
75113;DHT22;63692;47.338;8.520;2023-06-14T10:46:53;21.80;48.60
75113;DHT22;63692;47.338;8.520;2023-06-14T10:49:19;21.80;49.00
75113;DHT22;63692;47.338;8.520;2023-06-14T10:51:50;21.70;48.50
75113;DHT22;63692;47.338;8.520;2023-06-14T10:54:22;21.90;48.30
75113;DHT22;63692;47.338;8.520;2023-06-14T10:56:51;21.90;47.00
75113;DHT22;63692;47.338;8.520;2023-06-14T10:59:17;22.00;48.30
75113;DHT22;63692;47.338;8.520;2023-06-14T11:04:51;22.00;48.30
75113;DHT22;63692;47.338;8.520;2023-06-14T11:10:47;22.10;48.10
75113;DHT22;63692;47.338;8.520;2023-06-14T11:13:13;22.20;48.90
75113;DHT22;63692;47.338;8.520;2023-06-14T11:15:44;22.30;50.40
75113;DHT22;63692;47.338;8.520;2023-06-14T11:18:12;22.20;49.10
75113;DHT22;63692;47.338;8.520;2023-06-14T11:20:39;22.30;49.10
75113;DHT22;63692;47.338;8.520;2023-06-14T11:23:05;22.20;48.80
75113;DHT22;63692;47.338;8.520;2023-06-14T11:25:31;22.30;47.90
75113;DHT22;63692;47.338;8.520;2023-06-14T11:27:57;22.30;47.60
75113;DHT22;63692;47.338;8.520;2023-06-14T11:30:23;22.30;46.90
75113;DHT22;63692;47.338;8.520;2023-06-14T11:32:51;22.30;47.80
75113;DHT22;63692;47.338;8.520;2023-06-14T11:35:19;22.20;47.00
75113;DHT22;63692;47.338;8.520;2023-06-14T11:37:48;22.20;47.50
75113;DHT22;63692;47.338;8.520;2023-06-14T11:40:14;22.30;45.10
75113;DHT22;63692;47.338;8.520;2023-06-14T11:42:41;22.30;45.10
75113;DHT22;63692;47.338;8.520;2023-06-14T11:45:11;22.40;45.80
75113;DHT22;63692;47.338;8.520;2023-06-14T11:47:39;22.50;45.80
75113;DHT22;63692;47.338;8.520;2023-06-14T11:50:06;22.50;44.80
75113;DHT22;63692;47.338;8.520;2023-06-14T11:52:34;22.60;43.60
75113;DHT22;63692;47.338;8.520;2023-06-14T11:55:01;22.60;45.00
75113;DHT22;63692;47.338;8.520;2023-06-14T11:57:30;22.70;45.60
75113;DHT22;63692;47.338;8.520;2023-06-14T11:59:55;22.60;46.30
75113;DHT22;63692;47.338;8.520;2023-06-14T12:02:22;22.80;44.60
75113;DHT22;63692;47.338;8.520;2023-06-14T12:04:47;22.80;45.90
75113;DHT22;63692;47.338;8.520;2023-06-14T12:07:17;22.80;48.00
75113;DHT22;63692;47.338;8.520;2023-06-14T12:12:23;22.80;43.30
75113;DHT22;63692;47.338;8.520;2023-06-14T12:14:50;22.90;45.70
75113;DHT22;63692;47.338;8.520;2023-06-14T12:17:17;23.10;43.40
75113;DHT22;63692;47.338;8.520;2023-06-14T12:19:43;23.20;44.20
75113;DHT22;63692;47.338;8.520;2023-06-14T12:22:10;23.20;45.10
75113;DHT22;63692;47.338;8.520;2023-06-14T12:24:36;23.30;44.20
75113;DHT22;63692;47.338;8.520;2023-06-14T12:27:03;23.20;44.60
75113;DHT22;63692;47.338;8.520;2023-06-14T12:29:30;23.30;45.70
75113;DHT22;63692;47.338;8.520;2023-06-14T12:31:55;23.30;45.20
75113;DHT22;63692;47.338;8.520;2023-06-14T12:34:26;23.40;44.30
75113;DHT22;63692;47.338;8.520;2023-06-14T12:36:53;23.40;44.90
75113;DHT22;63692;47.338;8.520;2023-06-14T12:39:19;23.40;45.10
75113;DHT22;63692;47.338;8.520;2023-06-14T12:41:45;23.50;46.70
75113;DHT22;63692;47.338;8.520;2023-06-14T12:44:11;23.60;46.60
75113;DHT22;63692;47.338;8.520;2023-06-14T12:46:37;23.70;46.50
75113;DHT22;63692;47.338;8.520;2023-06-14T12:49:05;23.70;46.70
75113;DHT22;63692;47.338;8.520;2023-06-14T12:51:32;23.60;46.60
75113;DHT22;63692;47.338;8.520;2023-06-14T12:53:57;23.60;45.80
75113;DHT22;63692;47.338;8.520;2023-06-14T12:56:23;23.70;46.80
75113;DHT22;63692;47.338;8.520;2023-06-14T12:58:49;23.80;45.20
75113;DHT22;63692;47.338;8.520;2023-06-14T13:01:14;23.80;47.40
75113;DHT22;63692;47.338;8.520;2023-06-14T13:03:40;23.80;45.70
75113;DHT22;63692;47.338;8.520;2023-06-14T13:06:05;23.80;44.90
75113;DHT22;63692;47.338;8.520;2023-06-14T13:08:31;23.80;43.80
75113;DHT22;63692;47.338;8.520;2023-06-14T13:10:57;23.90;43.60
75113;DHT22;63692;47.338;8.520;2023-06-14T13:13:23;24.00;44.10
75113;DHT22;63692;47.338;8.520;2023-06-14T13:15:49;24.00;44.50
75113;DHT22;63692;47.338;8.520;2023-06-14T13:18:15;24.00;45.00
75113;DHT22;63692;47.338;8.520;2023-06-14T13:20:41;24.00;45.50
75113;DHT22;63692;47.338;8.520;2023-06-14T13:23:07;24.00;45.30
75113;DHT22;63692;47.338;8.520;2023-06-14T13:25:37;24.10;44.30
75113;DHT22;63692;47.338;8.520;2023-06-14T13:28:04;24.10;43.70
75113;DHT22;63692;47.338;8.520;2023-06-14T13:30:30;24.20;45.00
75113;DHT22;63692;47.338;8.520;2023-06-14T13:32:56;24.20;44.00
75113;DHT22;63692;47.338;8.520;2023-06-14T13:35:23;24.20;42.80
75113;DHT22;63692;47.338;8.520;2023-06-14T13:37:49;24.30;43.60
75113;DHT22;63692;47.338;8.520;2023-06-14T13:40:15;24.30;45.70
75113;DHT22;63692;47.338;8.520;2023-06-14T13:42:41;24.30;44.90
75113;DHT22;63692;47.338;8.520;2023-06-14T13:45:07;24.30;44.00
75113;DHT22;63692;47.338;8.520;2023-06-14T13:47:33;24.40;42.50
75113;DHT22;63692;47.338;8.520;2023-06-14T13:49:59;24.40;44.40
75113;DHT22;63692;47.338;8.520;2023-06-14T13:52:24;24.40;43.40
75113;DHT22;63692;47.338;8.520;2023-06-14T13:54:50;24.50;42.80
75113;DHT22;63692;47.338;8.520;2023-06-14T13:57:17;24.50;44.40
75113;DHT22;63692;47.338;8.520;2023-06-14T13:59:43;24.50;44.10
75113;DHT22;63692;47.338;8.520;2023-06-14T14:02:11;24.40;45.00
75113;DHT22;63692;47.338;8.520;2023-06-14T14:04:38;24.40;44.90
75113;DHT22;63692;47.338;8.520;2023-06-14T14:07:04;24.50;44.80
75113;DHT22;63692;47.338;8.520;2023-06-14T14:09:34;24.50;45.30
75113;DHT22;63692;47.338;8.520;2023-06-14T14:12:00;24.60;42.50
75113;DHT22;63692;47.338;8.520;2023-06-14T14:14:28;24.70;43.60
75113;DHT22;63692;47.338;8.520;2023-06-14T14:16:53;24.70;43.10
75113;DHT22;63692;47.338;8.520;2023-06-14T14:19:20;24.80;43.80
75113;DHT22;63692;47.338;8.520;2023-06-14T14:21:46;24.80;42.90
75113;DHT22;63692;47.338;8.520;2023-06-14T14:24:12;24.90;44.20
75113;DHT22;63692;47.338;8.520;2023-06-14T14:26:38;25.00;42.00
75113;DHT22;63692;47.338;8.520;2023-06-14T14:29:03;25.00;43.40
75113;DHT22;63692;47.338;8.520;2023-06-14T14:31:30;25.00;41.00
75113;DHT22;63692;47.338;8.520;2023-06-14T14:33:55;25.00;40.70
75113;DHT22;63692;47.338;8.520;2023-06-14T14:36:21;25.00;41.30
75113;DHT22;63692;47.338;8.520;2023-06-14T14:38:47;25.10;42.50
75113;DHT22;63692;47.338;8.520;2023-06-14T14:41:12;25.10;40.60
75113;DHT22;63692;47.338;8.520;2023-06-14T14:43:38;25.10;41.00
75113;DHT22;63692;47.338;8.520;2023-06-14T14:46:04;25.20;40.80
75113;DHT22;63692;47.338;8.520;2023-06-14T14:48:29;25.20;41.20
75113;DHT22;63692;47.338;8.520;2023-06-14T14:50:55;25.30;39.70
75113;DHT22;63692;47.338;8.520;2023-06-14T14:53:21;25.20;40.70
75113;DHT22;63692;47.338;8.520;2023-06-14T14:55:46;25.20;40.70
75113;DHT22;63692;47.338;8.520;2023-06-14T14:58:12;25.30;40.80
75113;DHT22;63692;47.338;8.520;2023-06-14T15:00:39;25.30;39.20
75113;DHT22;63692;47.338;8.520;2023-06-14T15:03:05;25.30;39.70
75113;DHT22;63692;47.338;8.520;2023-06-14T15:05:30;25.30;43.10
75113;DHT22;63692;47.338;8.520;2023-06-14T15:07:57;25.40;39.20
75113;DHT22;63692;47.338;8.520;2023-06-14T15:10:22;25.50;39.00
75113;DHT22;63692;47.338;8.520;2023-06-14T15:12:48;25.40;40.10
75113;DHT22;63692;47.338;8.520;2023-06-14T15:15:14;25.50;40.30
75113;DHT22;63692;47.338;8.520;2023-06-14T15:17:39;25.60;39.90
75113;DHT22;63692;47.338;8.520;2023-06-14T15:20:05;25.70;39.90
75113;DHT22;63692;47.338;8.520;2023-06-14T15:22:31;25.60;42.90
75113;DHT22;63692;47.338;8.520;2023-06-14T15:24:57;25.60;41.00
75113;DHT22;63692;47.338;8.520;2023-06-14T15:27:23;25.60;40.50
75113;DHT22;63692;47.338;8.520;2023-06-14T15:29:48;25.70;41.40
75113;DHT22;63692;47.338;8.520;2023-06-14T15:32:14;25.70;39.80
75113;DHT22;63692;47.338;8.520;2023-06-14T15:34:40;25.70;38.90
75113;DHT22;63692;47.338;8.520;2023-06-14T15:37:08;25.80;39.20
75113;DHT22;63692;47.338;8.520;2023-06-14T15:39:34;25.70;39.30
75113;DHT22;63692;47.338;8.520;2023-06-14T15:42:00;25.70;40.60
75113;DHT22;63692;47.338;8.520;2023-06-14T15:44:26;25.80;40.30
75113;DHT22;63692;47.338;8.520;2023-06-14T15:46:52;25.90;39.40
75113;DHT22;63692;47.338;8.520;2023-06-14T15:51:55;25.90;39.30
75113;DHT22;63692;47.338;8.520;2023-06-14T15:54:20;25.90;40.50
75113;DHT22;63692;47.338;8.520;2023-06-14T15:56:46;25.90;39.80
75113;DHT22;63692;47.338;8.520;2023-06-14T15:59:11;25.90;39.20
75113;DHT22;63692;47.338;8.520;2023-06-14T16:01:37;25.90;39.10
75113;DHT22;63692;47.338;8.520;2023-06-14T16:04:03;25.90;41.50
75113;DHT22;63692;47.338;8.520;2023-06-14T16:06:29;25.90;40.50
75113;DHT22;63692;47.338;8.520;2023-06-14T16:08:54;26.00;40.10
75113;DHT22;63692;47.338;8.520;2023-06-14T16:11:20;25.90;43.90
75113;DHT22;63692;47.338;8.520;2023-06-14T16:13:46;25.80;46.70
75113;DHT22;63692;47.338;8.520;2023-06-14T16:16:12;25.70;47.30
75113;DHT22;63692;47.338;8.520;2023-06-14T16:18:38;25.70;44.50
75113;DHT22;63692;47.338;8.520;2023-06-14T16:21:03;25.70;47.10
75113;DHT22;63692;47.338;8.520;2023-06-14T16:23:32;25.70;44.70
75113;DHT22;63692;47.338;8.520;2023-06-14T16:25:58;25.60;45.80
75113;DHT22;63692;47.338;8.520;2023-06-14T16:28:23;25.60;49.60
75113;DHT22;63692;47.338;8.520;2023-06-14T16:30:49;25.50;48.20
75113;DHT22;63692;47.338;8.520;2023-06-14T16:33:15;25.40;47.40
75113;DHT22;63692;47.338;8.520;2023-06-14T16:35:40;25.40;46.90
75113;DHT22;63692;47.338;8.520;2023-06-14T16:38:07;25.30;48.60
75113;DHT22;63692;47.338;8.520;2023-06-14T16:40:32;25.30;47.30
75113;DHT22;63692;47.338;8.520;2023-06-14T16:42:58;25.30;47.80
75113;DHT22;63692;47.338;8.520;2023-06-14T16:45:24;25.30;46.40
75113;DHT22;63692;47.338;8.520;2023-06-14T16:47:51;25.30;47.20
75113;DHT22;63692;47.338;8.520;2023-06-14T16:50:16;25.20;47.90
75113;DHT22;63692;47.338;8.520;2023-06-14T16:52:42;25.10;48.10
75113;DHT22;63692;47.338;8.520;2023-06-14T16:55:08;25.10;46.40
75113;DHT22;63692;47.338;8.520;2023-06-14T16:57:34;25.10;46.40
75113;DHT22;63692;47.338;8.520;2023-06-14T17:00:00;25.00;46.10
75113;DHT22;63692;47.338;8.520;2023-06-14T17:02:26;25.00;46.20
75113;DHT22;63692;47.338;8.520;2023-06-14T17:04:51;25.00;45.00
75113;DHT22;63692;47.338;8.520;2023-06-14T17:07:17;24.90;44.50
75113;DHT22;63692;47.338;8.520;2023-06-14T17:09:42;25.00;44.00
75113;DHT22;63692;47.338;8.520;2023-06-14T17:12:08;25.00;45.00
75113;DHT22;63692;47.338;8.520;2023-06-14T17:14:34;24.90;45.80
75113;DHT22;63692;47.338;8.520;2023-06-14T17:17:00;25.00;46.20
75113;DHT22;63692;47.338;8.520;2023-06-14T17:19:26;24.90;44.40
75113;DHT22;63692;47.338;8.520;2023-06-14T17:21:52;25.00;44.60
75113;DHT22;63692;47.338;8.520;2023-06-14T17:24:19;25.00;45.40
75113;DHT22;63692;47.338;8.520;2023-06-14T17:26:45;25.00;45.20
75113;DHT22;63692;47.338;8.520;2023-06-14T17:29:11;24.90;44.60
75113;DHT22;63692;47.338;8.520;2023-06-14T17:31:36;24.90;44.80
75113;DHT22;63692;47.338;8.520;2023-06-14T17:34:02;24.90;45.40
75113;DHT22;63692;47.338;8.520;2023-06-14T17:36:28;24.90;45.40
75113;DHT22;63692;47.338;8.520;2023-06-14T17:38:54;24.90;44.90
75113;DHT22;63692;47.338;8.520;2023-06-14T17:41:20;24.90;45.10
75113;DHT22;63692;47.338;8.520;2023-06-14T17:43:48;24.90;44.80
75113;DHT22;63692;47.338;8.520;2023-06-14T17:46:14;24.80;46.20
75113;DHT22;63692;47.338;8.520;2023-06-14T17:48:39;24.80;45.70
75113;DHT22;63692;47.338;8.520;2023-06-14T17:51:06;24.80;47.00
75113;DHT22;63692;47.338;8.520;2023-06-14T17:53:32;24.80;46.10
75113;DHT22;63692;47.338;8.520;2023-06-14T17:55:58;24.70;45.40
75113;DHT22;63692;47.338;8.520;2023-06-14T17:58:25;24.70;45.90
75113;DHT22;63692;47.338;8.520;2023-06-14T18:00:51;24.70;45.50
75113;DHT22;63692;47.338;8.520;2023-06-14T18:03:17;24.70;46.30
75113;DHT22;63692;47.338;8.520;2023-06-14T18:05:43;24.70;46.30
75113;DHT22;63692;47.338;8.520;2023-06-14T18:08:10;24.70;46.50
75113;DHT22;63692;47.338;8.520;2023-06-14T18:10:36;24.60;47.70
75113;DHT22;63692;47.338;8.520;2023-06-14T18:13:03;24.60;46.50
75113;DHT22;63692;47.338;8.520;2023-06-14T18:15:28;24.60;46.60
75113;DHT22;63692;47.338;8.520;2023-06-14T18:17:54;24.50;46.40
75113;DHT22;63692;47.338;8.520;2023-06-14T18:20:21;24.50;46.20
75113;DHT22;63692;47.338;8.520;2023-06-14T18:22:48;24.50;47.90
75113;DHT22;63692;47.338;8.520;2023-06-14T18:25:15;24.40;52.00
75113;DHT22;63692;47.338;8.520;2023-06-14T18:27:41;24.30;48.30
75113;DHT22;63692;47.338;8.520;2023-06-14T18:30:08;24.30;48.00
75113;DHT22;63692;47.338;8.520;2023-06-14T18:32:33;24.20;51.40
75113;DHT22;63692;47.338;8.520;2023-06-14T18:35:01;24.20;53.60
75113;DHT22;63692;47.338;8.520;2023-06-14T18:37:27;24.10;54.20
75113;DHT22;63692;47.338;8.520;2023-06-14T18:39:53;24.10;53.70
75113;DHT22;63692;47.338;8.520;2023-06-14T18:42:20;24.00;54.80
75113;DHT22;63692;47.338;8.520;2023-06-14T18:44:49;23.90;54.60
75113;DHT22;63692;47.338;8.520;2023-06-14T18:47:18;23.80;54.90
75113;DHT22;63692;47.338;8.520;2023-06-14T18:49:43;23.80;55.40
75113;DHT22;63692;47.338;8.520;2023-06-14T18:52:09;23.70;57.20
75113;DHT22;63692;47.338;8.520;2023-06-14T18:54:35;23.70;56.70
75113;DHT22;63692;47.338;8.520;2023-06-14T18:57:02;23.60;55.50
75113;DHT22;63692;47.338;8.520;2023-06-14T18:59:27;23.50;55.70
75113;DHT22;63692;47.338;8.520;2023-06-14T19:01:53;23.50;56.00
75113;DHT22;63692;47.338;8.520;2023-06-14T19:04:19;23.50;55.80
75113;DHT22;63692;47.338;8.520;2023-06-14T19:06:46;23.40;54.80
75113;DHT22;63692;47.338;8.520;2023-06-14T19:09:12;23.40;55.00
75113;DHT22;63692;47.338;8.520;2023-06-14T19:11:39;23.30;55.70
75113;DHT22;63692;47.338;8.520;2023-06-14T19:14:05;23.30;56.10
75113;DHT22;63692;47.338;8.520;2023-06-14T19:16:31;23.30;56.40
75113;DHT22;63692;47.338;8.520;2023-06-14T19:18:57;23.20;57.10
75113;DHT22;63692;47.338;8.520;2023-06-14T19:21:23;23.20;56.70
75113;DHT22;63692;47.338;8.520;2023-06-14T19:23:49;23.10;56.60
75113;DHT22;63692;47.338;8.520;2023-06-14T19:26:14;23.10;56.50
75113;DHT22;63692;47.338;8.520;2023-06-14T19:28:40;23.00;58.00
75113;DHT22;63692;47.338;8.520;2023-06-14T19:36:14;22.90;57.10
75113;DHT22;63692;47.338;8.520;2023-06-14T19:39:16;22.80;56.80
75113;DHT22;63692;47.338;8.520;2023-06-14T19:42:02;22.70;55.60
75113;DHT22;63692;47.338;8.520;2023-06-14T19:44:48;22.60;55.60
75113;DHT22;63692;47.338;8.520;2023-06-14T19:47:19;22.60;55.70
75113;DHT22;63692;47.338;8.520;2023-06-14T19:53:20;22.40;55.80
75113;DHT22;63692;47.338;8.520;2023-06-14T19:55:48;22.40;56.50
75113;DHT22;63692;47.338;8.520;2023-06-14T20:01:06;22.30;58.70
75113;DHT22;63692;47.338;8.520;2023-06-14T20:06:49;22.10;57.00
75113;DHT22;63692;47.338;8.520;2023-06-14T20:09:44;22.10;58.20
75113;DHT22;63692;47.338;8.520;2023-06-14T20:12:10;22.00;58.40
75113;DHT22;63692;47.338;8.520;2023-06-14T20:14:37;21.90;58.50
75113;DHT22;63692;47.338;8.520;2023-06-14T20:17:03;21.90;60.30